Time;durP1;ratioP1;P1;durP2;ratioP2;P2;SDS_P1;SDS_P2;PMS_P1;PMS_P2;Temp;Humidity;BMP_temperature;BMP_pressure;BME280_temperature;BME280_humidity;BME280_pressure;Samples;Min_cycle;Max_cycle;Signal;HPM_P1;HPM_P2
2022/06/20 00:01:30;;;;;;;10.53;9.60;;;15.80;99.90;;;;;;5057222;28;20455;-66
2022/06/20 00:03:58;;;;;;;11.80;10.70;;;15.80;99.90;;;;;;5050781;28;20468;-66
2022/06/20 00:06:25;;;;;;;11.10;9.90;;;15.90;99.90;;;;;;5061621;28;20474;-66
2022/06/20 00:08:52;;;;;;;11.60;10.60;;;15.80;99.90;;;;;;5047311;28;20561;-66
2022/06/20 00:11:22;;;;;;;11.50;10.73;;;15.80;99.90;;;;;;5056342;28;20463;-66
2022/06/20 00:13:53;;;;;;;11.10;10.20;;;15.80;99.90;;;;;;5053719;28;20458;-66
2022/06/20 00:16:20;;;;;;;12.07;11.27;;;15.60;99.90;;;;;;5057137;28;20570;-66
2022/06/20 00:18:48;;;;;;;13.27;11.93;;;15.80;99.90;;;;;;5058529;28;20823;-65
2022/06/20 00:21:18;;;;;;;12.27;11.37;;;15.80;99.90;;;;;;5056006;28;20490;-67
2022/06/20 00:23:45;;;;;;;11.87;11.07;;;15.80;99.90;;;;;;5055819;28;20989;-66
2022/06/20 00:26:13;;;;;;;13.87;12.47;;;15.80;99.90;;;;;;5057692;28;20491;-65
2022/06/20 00:28:41;;;;;;;12.80;11.90;;;15.70;99.90;;;;;;5054202;28;20476;-67
2022/06/20 00:31:09;;;;;;;14.67;13.37;;;15.70;99.90;;;;;;5049701;28;20462;-66
2022/06/20 00:33:36;;;;;;;12.70;11.73;;;15.70;99.90;;;;;;5054842;28;20463;-66
2022/06/20 00:36:04;;;;;;;12.80;11.80;;;15.70;99.90;;;;;;5049716;28;21128;-66
2022/06/20 00:38:32;;;;;;;12.30;11.60;;;15.70;99.90;;;;;;5058194;28;20961;-66
2022/06/20 00:41:04;;;;;;;13.87;12.50;;;15.80;99.90;;;;;;5050488;28;20453;-66
2022/06/20 00:43:34;;;;;;;13.50;12.70;;;15.70;99.90;;;;;;5054818;28;20463;-66
2022/06/20 00:46:05;;;;;;;14.37;13.20;;;15.90;99.90;;;;;;5058892;28;20989;-66
2022/06/20 00:48:38;;;;;;;13.97;13.03;;;15.90;99.90;;;;;;5049475;28;20654;-67
2022/06/20 00:51:14;;;;;;;13.90;12.73;;;15.90;99.90;;;;;;5055796;28;20530;-66
2022/06/20 00:53:45;;;;;;;14.27;13.07;;;16.00;99.90;;;;;;5049259;28;20465;-67
2022/06/20 00:56:17;;;;;;;14.03;12.90;;;15.90;99.90;;;;;;5056440;28;20494;-67
2022/06/20 00:58:47;;;;;;;15.07;13.77;;;15.70;99.90;;;;;;5051109;28;20482;-66
2022/06/20 01:01:16;;;;;;;15.00;13.70;;;15.70;99.90;;;;;;5056040;28;20459;-66
2022/06/20 01:03:46;;;;;;;14.83;13.57;;;15.70;99.90;;;;;;5058872;28;20824;-66
2022/06/20 01:06:16;;;;;;;21.87;17.70;;;15.70;99.90;;;;;;5051211;28;20471;-65
2022/06/20 01:08:48;;;;;;;22.73;20.43;;;15.70;99.90;;;;;;5058700;28;20519;-65
2022/06/20 01:11:17;;;;;;;33.80;29.83;;;15.50;99.90;;;;;;5050873;28;20962;-63
2022/06/20 01:13:46;;;;;;;42.83;33.87;;;15.20;99.90;;;;;;5054854;28;20456;-64
2022/06/20 01:16:24;;;;;;;61.40;33.50;;;15.00;99.90;;;;;;5055969;28;20490;-66
2022/06/20 01:18:52;;;;;;;42.73;29.77;;;14.60;99.90;;;;;;5056964;28;20495;-65
2022/06/20 01:21:22;;;;;;;30.17;27.47;;;14.50;99.90;;;;;;5053724;28;20476;-66
2022/06/20 01:23:59;;;;;;;31.73;28.67;;;14.40;99.90;;;;;;5052595;28;20488;-64
2022/06/20 01:26:37;;;;;;;30.40;27.40;;;14.20;99.90;;;;;;5049579;28;20463;-65
2022/06/20 01:29:09;;;;;;;30.07;27.30;;;14.10;99.90;;;;;;5056512;28;20474;-66
2022/06/20 01:31:40;;;;;;;30.70;28.30;;;14.10;99.90;;;;;;5050548;28;20864;-65
2022/06/20 01:34:08;;;;;;;32.33;29.40;;;14.10;99.90;;;;;;5054834;28;20470;-65
2022/06/20 01:39:24;;;;;;;29.93;27.17;;;14.10;99.90;;;;;;5054759;28;20676;-65
2022/06/20 01:44:43;;;;;;;30.93;28.43;;;14.20;99.90;;;;;;5053429;28;20972;-65
2022/06/20 01:47:10;;;;;;;31.17;28.57;;;14.30;99.90;;;;;;5058724;28;20517;-66
2022/06/20 01:49:38;;;;;;;32.13;29.40;;;14.30;99.90;;;;;;5058085;28;20478;-65
2022/06/20 01:52:09;;;;;;;31.10;28.80;;;14.30;99.90;;;;;;5057820;28;20463;-66
2022/06/20 01:54:44;;;;;;;32.47;29.63;;;14.20;99.90;;;;;;5056935;28;20461;-66
2022/06/20 01:57:14;;;;;;;31.10;28.10;;;14.20;99.90;;;;;;5064531;28;21042;-65
2022/06/20 01:59:51;;;;;;;31.63;29.10;;;14.20;99.90;;;;;;5051429;28;20474;-66
2022/06/20 02:02:19;;;;;;;32.37;29.57;;;14.00;99.90;;;;;;5052780;28;20463;-66
2022/06/20 02:04:47;;;;;;;29.17;26.73;;;13.90;99.90;;;;;;5052742;28;21018;-66
2022/06/20 02:07:15;;;;;;;30.67;28.47;;;13.90;99.90;;;;;;5057203;28;20470;-65
2022/06/20 02:09:43;;;;;;;30.40;27.70;;;13.80;99.90;;;;;;5053079;28;20894;-64
2022/06/20 02:12:11;;;;;;;31.63;29.03;;;13.90;99.90;;;;;;5058088;28;20469;-66
2022/06/20 02:14:42;;;;;;;29.97;27.33;;;13.80;99.90;;;;;;5056047;28;20464;-67
2022/06/20 02:17:14;;;;;;;30.77;27.57;;;13.90;99.90;;;;;;5058705;28;20513;-67
2022/06/20 02:19:46;;;;;;;29.83;27.13;;;13.80;99.90;;;;;;5052634;28;20488;-68
2022/06/20 02:22:16;;;;;;;29.43;26.40;;;13.70;99.90;;;;;;5053049;28;20460;-67
2022/06/20 02:24:47;;;;;;;27.37;24.80;;;13.40;99.90;;;;;;5060765;28;20542;-69
2022/06/20 02:27:21;;;;;;;29.13;26.17;;;13.40;99.90;;;;;;5061263;28;20471;-68
2022/06/20 02:29:48;;;;;;;28.20;26.00;;;13.50;99.90;;;;;;5060948;28;20481;-65
2022/06/20 02:32:20;;;;;;;25.80;23.67;;;13.50;99.90;;;;;;5059000;28;20475;-66
2022/06/20 02:34:47;;;;;;;27.23;24.50;;;13.50;99.90;;;;;;5049927;28;20452;-64
2022/06/20 02:37:19;;;;;;;28.33;24.93;;;13.40;99.90;;;;;;5058737;28;20489;-66
2022/06/20 02:39:47;;;;;;;26.37;23.97;;;13.40;99.90;;;;;;5060944;28;20986;-66
2022/06/20 02:42:19;;;;;;;25.37;23.40;;;13.30;99.90;;;;;;5056561;28;20470;-65
2022/06/20 02:44:48;;;;;;;25.60;23.17;;;13.30;99.90;;;;;;5057319;28;20464;-68
2022/06/20 02:47:20;;;;;;;29.37;24.50;;;13.20;99.90;;;;;;5056692;28;20463;-68
2022/06/20 02:49:49;;;;;;;24.70;22.50;;;13.20;99.90;;;;;;5058320;28;20980;-66
2022/06/20 02:52:21;;;;;;;26.10;23.90;;;13.10;99.90;;;;;;5053885;28;20471;-67
2022/06/20 02:54:49;;;;;;;27.27;24.60;;;13.10;99.90;;;;;;5054747;28;20482;-65
2022/06/20 02:57:26;;;;;;;26.03;24.10;;;13.00;99.90;;;;;;5058318;28;20486;-66
2022/06/20 02:59:56;;;;;;;28.10;24.63;;;13.00;99.90;;;;;;5060322;28;20478;-66
2022/06/20 03:02:29;;;;;;;26.00;24.00;;;13.00;99.90;;;;;;5055844;28;20465;-65
2022/06/20 03:04:56;;;;;;;27.57;25.40;;;13.00;99.90;;;;;;5051077;28;20468;-67
2022/06/20 03:07:27;;;;;;;27.73;25.13;;;12.90;99.90;;;;;;5055982;28;20545;-66
2022/06/20 03:09:56;;;;;;;30.17;25.87;;;12.90;99.90;;;;;;5053617;28;20484;-66
2022/06/20 03:12:23;;;;;;;25.43;23.37;;;12.90;99.90;;;;;;5057032;28;20839;-67
2022/06/20 03:14:56;;;;;;;27.27;24.17;;;12.80;99.90;;;;;;5048249;28;20471;-66
2022/06/20 03:17:25;;;;;;;25.63;23.50;;;12.80;99.90;;;;;;5055029;28;20495;-65
2022/06/20 03:19:56;;;;;;;26.30;23.40;;;12.80;99.90;;;;;;5053806;28;20463;-65
2022/06/20 03:22:27;;;;;;;24.70;22.70;;;12.80;99.90;;;;;;5053144;28;20872;-67
2022/06/20 03:24:55;;;;;;;23.03;21.17;;;12.80;99.90;;;;;;5056789;28;20464;-65
2022/06/20 03:27:25;;;;;;;25.03;22.53;;;12.70;99.90;;;;;;5055347;28;20963;-66
2022/06/20 03:29:56;;;;;;;23.20;21.60;;;12.70;99.90;;;;;;5060463;28;20556;-66
2022/06/20 03:32:25;;;;;;;23.13;20.93;;;12.70;99.90;;;;;;5053218;28;20535;-66
2022/06/20 03:34:52;;;;;;;22.13;20.63;;;12.70;99.90;;;;;;5057441;28;20468;-67
2022/06/20 03:37:22;;;;;;;23.00;21.00;;;12.70;99.90;;;;;;5051021;28;20491;-66
2022/06/20 03:39:52;;;;;;;28.07;22.33;;;12.70;99.90;;;;;;5050724;28;20453;-65
2022/06/20 03:42:19;;;;;;;22.70;20.53;;;12.80;99.90;;;;;;5052784;28;20460;-66
2022/06/20 03:45:02;;;;;;;24.10;22.00;;;12.80;99.90;;;;;;5053862;28;20460;-66
2022/06/20 03:47:34;;;;;;;23.33;20.90;;;12.80;99.90;;;;;;5052665;28;20463;-66
2022/06/20 03:50:05;;;;;;;23.70;21.50;;;12.80;99.90;;;;;;5056631;28;20459;-66
2022/06/20 03:52:36;;;;;;;24.50;22.20;;;12.90;99.90;;;;;;5055661;28;20490;-64
2022/06/20 03:55:05;;;;;;;25.13;22.90;;;12.90;99.90;;;;;;5052588;28;20982;-66
2022/06/20 03:57:36;;;;;;;26.07;23.40;;;12.90;99.90;;;;;;5058708;28;20488;-67
2022/06/20 04:00:08;;;;;;;25.97;23.70;;;13.00;99.90;;;;;;5061846;28;20470;-67
2022/06/20 04:02:41;;;;;;;24.30;22.40;;;13.00;99.90;;;;;;5038640;28;20896;-67
2022/06/20 04:05:17;;;;;;;26.07;23.30;;;12.90;99.90;;;;;;5027792;28;20511;-65
2022/06/20 04:07:47;;;;;;;25.93;23.50;;;13.00;99.90;;;;;;5024791;28;20468;-66
2022/06/20 04:13:10;;;;;;;27.53;24.80;;;13.20;99.90;;;;;;5028071;28;20467;-66
2022/06/20 04:15:41;;;;;;;28.60;26.13;;;13.20;99.90;;;;;;5028663;28;20826;-65
2022/06/20 04:18:29;;;;;;;29.30;27.00;;;13.20;99.90;;;;;;5027559;28;20464;-65
2022/06/20 04:21:03;;;;;;;29.20;26.83;;;13.20;99.90;;;;;;5028265;28;20490;-66
2022/06/20 04:23:37;;;;;;;28.73;26.40;;;13.30;99.90;;;;;;5029148;28;21025;-67
2022/06/20 04:26:10;;;;;;;28.93;26.50;;;13.30;99.90;;;;;;5025541;28;20467;-65
2022/06/20 04:28:44;;;;;;;28.27;26.47;;;13.20;99.90;;;;;;5030722;28;20456;-67
2022/06/20 04:31:18;;;;;;;28.07;26.00;;;13.20;99.90;;;;;;5032105;28;20482;-66
2022/06/20 04:33:52;;;;;;;28.53;26.00;;;13.20;99.90;;;;;;5031229;28;20519;-66
2022/06/20 04:36:28;;;;;;;30.53;28.20;;;13.20;99.90;;;;;;5029455;28;20475;-67
2022/06/20 04:39:00;;;;;;;29.53;27.13;;;13.30;99.90;;;;;;5029367;28;20526;-67
2022/06/20 04:41:36;;;;;;;30.57;28.00;;;13.30;99.90;;;;;;5030446;28;20475;-66
2022/06/20 04:44:10;;;;;;;31.80;28.17;;;13.40;99.90;;;;;;5039571;28;20965;-67
2022/06/20 04:46:43;;;;;;;29.70;27.10;;;13.50;99.90;;;;;;5054585;28;20455;-67
2022/06/20 04:49:15;;;;;;;36.60;27.80;;;13.40;99.90;;;;;;5030720;28;20544;-68
2022/06/20 04:51:45;;;;;;;30.87;28.10;;;13.50;99.90;;;;;;5031899;28;20474;-68
2022/06/20 04:54:16;;;;;;;32.50;27.80;;;13.50;99.90;;;;;;5032150;28;20463;-67
2022/06/20 04:56:44;;;;;;;30.37;27.77;;;13.50;99.90;;;;;;5030766;28;20918;-67
2022/06/20 04:59:14;;;;;;;34.90;27.80;;;13.40;99.90;;;;;;5032168;28;21101;-68
2022/06/20 05:01:41;;;;;;;30.40;27.20;;;13.40;99.90;;;;;;5031607;28;20477;-67
2022/06/20 05:04:23;;;;;;;30.50;27.33;;;13.50;99.90;;;;;;5031621;28;20897;-68
2022/06/20 05:06:51;;;;;;;29.00;26.47;;;13.40;99.90;;;;;;5029840;28;21224;-66
2022/06/20 05:09:39;;;;;;;29.83;26.60;;;13.50;99.90;;;;;;5031839;28;20490;-67
2022/06/20 05:12:11;;;;;;;29.80;27.17;;;13.50;99.90;;;;;;5030756;28;20921;-67
2022/06/20 05:14:44;;;;;;;29.07;26.67;;;13.60;99.90;;;;;;5032186;28;20460;-67
2022/06/20 05:17:18;;;;;;;27.10;25.00;;;13.60;99.90;;;;;;5031371;28;20623;-66
2022/06/20 05:19:49;;;;;;;29.07;26.20;;;13.60;99.90;;;;;;5031213;28;20461;-67
2022/06/20 05:22:21;;;;;;;28.40;25.80;;;13.60;99.90;;;;;;5031516;28;20467;-66
2022/06/20 05:24:50;;;;;;;26.23;24.23;;;13.60;99.90;;;;;;5030659;28;20552;-67
2022/06/20 05:27:20;;;;;;;27.10;24.57;;;13.40;99.90;;;;;;5030936;28;20842;-66
2022/06/20 05:29:50;;;;;;;30.37;25.23;;;13.30;99.90;;;;;;5030985;28;21310;-67
2022/06/20 05:32:23;;;;;;;25.50;23.27;;;13.30;99.90;;;;;;5029861;28;20581;-67
2022/06/20 05:34:58;;;;;;;24.73;22.70;;;13.20;99.90;;;;;;5030756;28;21421;-66
2022/06/20 05:37:31;;;;;;;26.30;23.60;;;13.20;99.90;;;;;;5030074;28;20893;-67
2022/06/20 05:40:04;;;;;;;26.37;23.67;;;13.20;99.90;;;;;;5029027;28;20462;-67
2022/06/20 05:42:31;;;;;;;24.30;22.40;;;13.20;99.90;;;;;;5029709;28;20511;-66
2022/06/20 05:44:58;;;;;;;25.13;23.13;;;13.30;99.90;;;;;;5030385;28;20565;-68
2022/06/20 05:47:29;;;;;;;29.50;23.90;;;13.30;99.90;;;;;;5030474;28;20471;-67
2022/06/20 05:50:03;;;;;;;26.60;24.27;;;13.30;99.90;;;;;;5030517;28;20463;-68
2022/06/20 05:52:31;;;;;;;25.80;23.37;;;13.30;99.90;;;;;;5029277;28;20459;-67
2022/06/20 05:55:06;;;;;;;26.63;23.93;;;13.30;99.90;;;;;;5031040;28;21172;-68
2022/06/20 05:57:35;;;;;;;25.70;23.70;;;13.30;99.90;;;;;;5030263;28;21150;-68
2022/06/20 06:00:07;;;;;;;24.33;22.10;;;13.40;99.90;;;;;;5031061;28;20466;-66
2022/06/20 06:02:39;;;;;;;26.87;24.10;;;13.40;99.90;;;;;;5027113;28;20804;-67
2022/06/20 06:05:15;;;;;;;25.20;22.67;;;13.30;99.90;;;;;;5030487;28;21022;-67
2022/06/20 06:07:46;;;;;;;25.33;23.00;;;13.40;99.90;;;;;;5029810;28;20455;-67
2022/06/20 06:10:36;;;;;;;23.57;21.67;;;13.40;99.90;;;;;;5027156;28;20518;-66
2022/06/20 06:13:13;;;;;;;25.20;23.13;;;13.40;99.90;;;;;;5029382;28;20479;-67
2022/06/20 06:16:46;;;;;;;28.57;22.83;;;13.40;99.90;;;;;;5028247;28;20537;-67
2022/06/20 06:18:32;;;;;;;23.33;19.70;;;13.40;99.90;;;;;;5028210;28;20501;-66
2022/06/20 06:21:00;;;;;;;22.97;19.87;;;13.40;99.90;;;;;;5028230;28;20494;-66
2022/06/20 06:23:28;;;;;;;19.80;17.80;;;13.50;99.90;;;;;;5028614;28;20479;-67
2022/06/20 06:25:55;;;;;;;16.57;15.17;;;13.60;99.90;;;;;;5027055;28;20451;-65
2022/06/20 06:28:25;;;;;;;26.00;17.40;;;13.60;99.90;;;;;;5027857;28;20474;-67
2022/06/20 06:30:57;;;;;;;17.53;16.00;;;13.60;99.90;;;;;;5027981;28;20475;-68
2022/06/20 06:33:29;;;;;;;16.40;14.73;;;13.70;99.90;;;;;;5027358;28;20958;-66
2022/06/20 06:36:01;;;;;;;17.77;15.47;;;13.80;99.90;;;;;;5027534;28;21565;-66
2022/06/20 06:38:33;;;;;;;15.13;13.53;;;13.80;99.90;;;;;;5026733;28;20790;-65
2022/06/20 06:41:01;;;;;;;26.33;13.67;;;14.00;99.90;;;;;;5027705;28;20889;-67
2022/06/20 06:43:37;;;;;;;19.57;14.10;;;14.20;99.90;;;;;;5028121;28;20997;-65
2022/06/20 06:46:06;;;;;;;15.67;14.03;;;14.20;99.90;;;;;;5027341;28;20982;-67
2022/06/20 06:48:40;;;;;;;19.60;13.70;;;14.20;99.90;;;;;;5027764;28;20472;-67
2022/06/20 06:51:13;;;;;;;15.07;13.80;;;14.30;99.90;;;;;;5028378;28;20459;-66
2022/06/20 06:53:44;;;;;;;14.00;12.37;;;14.30;99.90;;;;;;5028312;28;20462;-66
2022/06/20 06:56:17;;;;;;;15.90;13.63;;;14.40;99.90;;;;;;5027750;28;20460;-67
2022/06/20 06:58:49;;;;;;;14.53;13.17;;;14.30;99.90;;;;;;5027836;28;20496;-67
2022/06/20 07:01:20;;;;;;;14.30;13.00;;;14.30;99.90;;;;;;5028148;28;20452;-65
2022/06/20 07:03:51;;;;;;;16.23;12.30;;;14.10;99.90;;;;;;5028060;28;21156;-67
2022/06/20 07:06:24;;;;;;;15.83;12.77;;;14.10;99.90;;;;;;5027505;28;21167;-67
2022/06/20 07:08:56;;;;;;;14.57;12.53;;;14.00;99.90;;;;;;5027299;28;20838;-66
2022/06/20 07:11:25;;;;;;;13.33;12.03;;;14.10;99.90;;;;;;5028161;28;20476;-65
2022/06/20 07:13:59;;;;;;;12.67;11.50;;;14.20;99.90;;;;;;5027750;28;20466;-67
2022/06/20 07:16:32;;;;;;;14.80;13.27;;;14.20;99.90;;;;;;5027179;28;20459;-66
2022/06/20 07:19:01;;;;;;;13.23;12.03;;;14.30;99.90;;;;;;5027489;28;20480;-66
2022/06/20 07:21:32;;;;;;;14.57;12.70;;;14.20;99.90;;;;;;5028273;28;20502;-67
2022/06/20 07:24:01;;;;;;;14.27;12.50;;;14.30;99.90;;;;;;5027485;28;20474;-67
2022/06/20 07:26:34;;;;;;;22.87;13.57;;;14.40;99.90;;;;;;5028155;28;20469;-66
2022/06/20 07:29:04;;;;;;;16.03;13.80;;;14.70;99.90;;;;;;5027408;28;20470;-66
2022/06/20 07:31:38;;;;;;;15.87;12.93;;;14.90;99.90;;;;;;5027581;28;21184;-65
2022/06/20 07:34:10;;;;;;;12.53;11.50;;;15.10;99.90;;;;;;5027379;28;20470;-67
2022/06/20 07:36:44;;;;;;;19.93;12.90;;;15.40;99.90;;;;;;5027386;28;20459;-65
2022/06/20 07:39:18;;;;;;;12.97;11.43;;;15.50;99.90;;;;;;5027805;28;20482;-66
2022/06/20 07:41:50;;;;;;;12.57;11.50;;;15.50;99.90;;;;;;5027350;28;20460;-64
2022/06/20 07:44:22;;;;;;;13.60;12.40;;;15.40;99.90;;;;;;5027456;28;20473;-66
2022/06/20 07:46:53;;;;;;;14.73;12.20;;;15.50;99.90;;;;;;5026808;28;20470;-65
2022/06/20 07:49:27;;;;;;;16.00;12.90;;;15.60;99.90;;;;;;5059929;28;20468;-66
2022/06/20 07:51:58;;;;;;;12.90;11.93;;;15.70;99.90;;;;;;5046467;28;20471;-67
2022/06/20 07:54:30;;;;;;;13.50;12.17;;;15.80;99.90;;;;;;5055916;28;20467;-66
2022/06/20 07:57:01;;;;;;;13.77;12.33;;;15.90;99.90;;;;;;5026806;28;20471;-65
2022/06/20 07:59:34;;;;;;;14.30;11.70;;;15.90;99.90;;;;;;5026312;28;20989;-66
2022/06/20 08:02:07;;;;;;;15.30;13.00;;;16.00;99.90;;;;;;5027600;28;20892;-67
2022/06/20 08:04:37;;;;;;;12.27;11.30;;;16.10;99.90;;;;;;5030407;28;21002;-67
2022/06/20 08:07:11;;;;;;;12.80;11.60;;;16.00;99.90;;;;;;5030985;28;21026;-66
2022/06/20 08:09:45;;;;;;;15.80;11.57;;;16.20;99.90;;;;;;5030662;28;20482;-66
2022/06/20 08:12:21;;;;;;;12.97;11.60;;;16.40;99.90;;;;;;5030900;28;20471;-66
2022/06/20 08:14:54;;;;;;;12.27;11.17;;;17.00;99.90;;;;;;5031313;28;20454;-67
2022/06/20 08:17:22;;;;;;;13.57;12.47;;;17.60;99.90;;;;;;5030104;28;20941;-66
2022/06/20 08:19:50;;;;;;;14.53;13.20;;;18.20;99.90;;;;;;5029690;28;20458;-66
2022/06/20 08:22:22;;;;;;;15.43;14.43;;;18.70;99.90;;;;;;5030821;28;20555;-66
2022/06/20 08:24:54;;;;;;;15.80;14.57;;;18.70;99.90;;;;;;5030263;28;20463;-67
2022/06/20 08:27:30;;;;;;;17.03;15.53;;;18.60;99.90;;;;;;5037237;28;20544;-67
2022/06/20 08:30:02;;;;;;;18.37;16.67;;;18.50;99.90;;;;;;5032029;28;20459;-67
2022/06/20 08:32:34;;;;;;;16.60;15.30;;;18.70;99.90;;;;;;5031140;28;20475;-66
2022/06/20 08:35:12;;;;;;;16.43;15.23;;;18.90;99.90;;;;;;5031058;28;21088;-66
2022/06/20 08:37:45;;;;;;;18.43;16.80;;;19.60;99.90;;;;;;5028774;28;20590;-67
2022/06/20 08:40:37;;;;;;;17.67;16.50;;;20.90;99.90;;;;;;5029435;28;20459;-66
2022/06/20 08:43:33;;;;;;;22.57;16.50;;;20.80;99.90;;;;;;5030107;28;20467;-66
2022/06/20 08:46:31;;;;;;;17.20;16.03;;;19.90;99.90;;;;;;5010504;28;20462;-66
2022/06/20 08:49:32;;;;;;;17.47;16.00;;;19.40;99.90;;;;;;5022237;28;21077;-66
2022/06/20 08:52:37;;;;;;;16.70;15.63;;;19.50;99.90;;;;;;5021926;28;20847;-67
2022/06/20 08:55:39;;;;;;;17.80;16.00;;;19.50;99.90;;;;;;5018347;28;20463;-67
2022/06/20 08:58:16;;;;;;;18.10;16.37;;;19.60;99.90;;;;;;5022705;28;20535;-66
2022/06/20 09:00:52;;;;;;;17.90;16.10;;;19.70;99.90;;;;;;5024022;28;20697;-67
2022/06/20 09:03:56;;;;;;;17.40;16.20;;;20.00;99.90;;;;;;5023566;28;20475;-68
2022/06/20 09:06:51;;;;;;;16.30;15.20;;;20.10;99.90;;;;;;5024114;28;20451;-67
2022/06/20 09:09:51;;;;;;;16.27;15.23;;;20.10;99.90;;;;;;5023404;28;20493;-66
2022/06/20 09:12:54;;;;;;;17.80;16.50;;;20.00;99.90;;;;;;5022606;28;20466;-66
2022/06/20 09:15:32;;;;;;;16.33;15.43;;;20.20;99.90;;;;;;5022196;28;20800;-66
2022/06/20 09:18:05;;;;;;;17.00;15.77;;;20.30;99.90;;;;;;5022888;28;20742;-67
2022/06/20 09:20:38;;;;;;;16.70;15.33;;;20.30;99.90;;;;;;5018743;28;21091;-66
2022/06/20 09:23:17;;;;;;;16.03;15.03;;;20.60;99.90;;;;;;5023159;28;21219;-66
2022/06/20 09:25:56;;;;;;;17.30;15.87;;;21.80;99.90;;;;;;5021837;28;20494;-67
2022/06/20 09:28:48;;;;;;;17.20;15.90;;;22.00;99.90;;;;;;5021939;28;20848;-66
2022/06/20 09:31:31;;;;;;;17.63;16.13;;;21.90;99.90;;;;;;5024108;28;22394;-67
2022/06/20 09:34:31;;;;;;;16.90;15.70;;;21.30;99.90;;;;;;5046274;28;20490;-66
2022/06/20 09:37:18;;;;;;;16.93;15.70;;;20.90;99.90;;;;;;5026261;28;20712;-66
2022/06/20 09:39:55;;;;;;;17.83;16.03;;;20.60;99.90;;;;;;5023808;28;20503;-66
2022/06/20 09:42:33;;;;;;;17.10;15.60;;;20.10;99.90;;;;;;5023690;28;20463;-67
2022/06/20 09:45:10;;;;;;;16.60;15.30;;;19.80;99.90;;;;;;5022585;28;20494;-66
2022/06/20 09:47:50;;;;;;;16.57;15.33;;;19.70;99.90;;;;;;5021739;28;20853;-67
2022/06/20 09:50:56;;;;;;;16.43;15.33;;;19.60;99.90;;;;;;5021954;28;20553;-66
2022/06/20 09:53:39;;;;;;;17.80;16.20;;;20.20;99.90;;;;;;5007761;28;22639;-66
2022/06/20 09:56:14;;;;;;;16.80;15.73;;;21.60;99.90;;;;;;5022913;28;20463;-66
2022/06/20 09:58:49;;;;;;;17.77;16.27;;;22.10;99.90;;;;;;5021835;28;21071;-68
2022/06/20 10:01:26;;;;;;;17.20;15.97;;;22.80;99.90;;;;;;5023355;28;20447;-68
2022/06/20 10:03:57;;;;;;;18.27;16.70;;;23.20;99.00;;;;;;5022558;28;20458;-67
2022/06/20 10:06:37;;;;;;;17.37;16.20;;;22.70;98.00;;;;;;5022738;28;21046;-67
2022/06/20 10:09:14;;;;;;;16.93;15.83;;;22.40;99.90;;;;;;5022813;28;20497;-68
2022/06/20 10:11:47;;;;;;;16.80;15.70;;;22.70;99.60;;;;;;5022744;28;20933;-66
2022/06/20 10:14:19;;;;;;;16.90;15.43;;;23.30;99.90;;;;;;5021181;28;20549;-67
2022/06/20 10:16:55;;;;;;;17.80;16.57;;;23.60;95.00;;;;;;5022869;28;20811;-67
2022/06/20 10:19:27;;;;;;;16.60;15.60;;;23.40;96.40;;;;;;5021813;28;20582;-69
2022/06/20 10:22:05;;;;;;;17.23;16.07;;;23.10;97.00;;;;;;5023117;28;21009;-67
2022/06/20 10:25:06;;;;;;;17.50;16.13;;;23.60;96.30;;;;;;5023009;28;20931;-67
2022/06/20 10:27:42;;;;;;;17.50;16.30;;;25.30;93.70;;;;;;5021913;28;20475;-66
2022/06/20 10:30:13;;;;;;;17.20;15.90;;;26.50;90.90;;;;;;5021975;28;20552;-68
2022/06/20 10:33:12;;;;;;;17.33;16.30;;;26.10;90.40;;;;;;5021004;28;20557;-68
2022/06/20 10:35:49;;;;;;;17.43;16.23;;;25.00;92.30;;;;;;5011291;28;20455;-66
2022/06/20 10:38:24;;;;;;;17.17;16.27;;;24.40;91.00;;;;;;5021244;28;20498;-66
2022/06/20 10:41:00;;;;;;;16.97;15.97;;;23.90;92.40;;;;;;5022393;28;20645;-67
2022/06/20 10:43:41;;;;;;;18.33;16.50;;;23.40;91.80;;;;;;5021997;28;21261;-67
2022/06/20 10:46:11;;;;;;;18.17;16.80;;;22.80;92.90;;;;;;5020922;28;20470;-66
2022/06/20 10:49:11;;;;;;;17.27;16.13;;;22.80;93.80;;;;;;5021674;28;20474;-66
2022/06/20 10:51:48;;;;;;;16.97;16.03;;;22.40;95.10;;;;;;5020687;28;20480;-69
2022/06/20 10:54:29;;;;;;;17.70;16.40;;;22.10;95.20;;;;;;5022449;28;20598;-67
2022/06/20 10:57:06;;;;;;;17.80;16.60;;;22.40;95.40;;;;;;5019593;28;21296;-67
2022/06/20 10:59:41;;;;;;;17.47;16.40;;;23.50;93.70;;;;;;5021525;28;20576;-67
2022/06/20 11:02:27;;;;;;;18.10;16.60;;;24.30;93.90;;;;;;5020349;28;22064;-66
2022/06/20 11:05:05;;;;;;;17.00;16.10;;;25.00;90.10;;;;;;5023377;28;20737;-67
2022/06/20 11:07:40;;;;;;;17.37;16.37;;;25.60;89.00;;;;;;5020958;28;20509;-68
2022/06/20 11:10:26;;;;;;;17.43;16.20;;;26.60;84.60;;;;;;5021209;28;20563;-66
2022/06/20 11:13:01;;;;;;;17.37;16.37;;;26.90;83.40;;;;;;5022761;28;21035;-67
2022/06/20 11:15:36;;;;;;;17.47;16.37;;;27.70;80.20;;;;;;5021408;28;21000;-67
2022/06/20 11:18:15;;;;;;;17.77;16.67;;;28.30;78.00;;;;;;5020605;28;20558;-67
2022/06/20 11:20:50;;;;;;;19.07;17.70;;;28.30;75.30;;;;;;5021930;28;20490;-67
2022/06/20 11:23:20;;;;;;;17.90;16.90;;;27.20;74.20;;;;;;5021260;28;20465;-68
2022/06/20 11:26:03;;;;;;;17.80;16.60;;;27.20;78.40;;;;;;5021387;28;20906;-65
2022/06/20 11:28:59;;;;;;;18.20;17.10;;;26.90;73.90;;;;;;5020586;28;21028;-66
2022/06/20 11:31:38;;;;;;;17.97;16.70;;;27.00;76.40;;;;;;5021154;28;20697;-66
2022/06/20 11:34:35;;;;;;;18.37;17.07;;;26.50;74.30;;;;;;5021185;28;21054;-66
2022/06/20 11:37:16;;;;;;;16.63;15.80;;;26.30;75.50;;;;;;5020057;28;20870;-66
2022/06/20 11:40:00;;;;;;;17.87;16.47;;;26.00;76.40;;;;;;5021371;28;20495;-67
2022/06/20 11:43:05;;;;;;;16.83;15.70;;;25.30;75.60;;;;;;5023334;28;20986;-66
2022/06/20 11:45:52;;;;;;;17.43;16.43;;;24.70;79.10;;;;;;5045336;28;20463;-66
2022/06/20 11:48:29;;;;;;;17.43;16.33;;;26.50;76.60;;;;;;5043298;28;20460;-67
2022/06/20 11:51:03;;;;;;;17.30;16.10;;;27.30;73.30;;;;;;5023918;28;20451;-67
2022/06/20 11:53:47;;;;;;;17.47;16.57;;;27.40;68.90;;;;;;5020695;28;20458;-68
2022/06/20 11:56:23;;;;;;;16.43;15.40;;;26.70;68.20;;;;;;5020815;28;20498;-67
2022/06/20 11:58:59;;;;;;;17.53;16.33;;;27.00;71.70;;;;;;5019933;28;20495;-67
2022/06/20 12:01:30;;;;;;;17.77;16.20;;;27.20;69.60;;;;;;5021240;28;21148;-68
2022/06/20 12:04:04;;;;;;;18.47;17.17;;;26.60;70.10;;;;;;5021880;28;20930;-68
2022/06/20 12:06:36;;;;;;;17.40;16.30;;;26.10;67.80;;;;;;5020708;28;20788;-68
2022/06/20 12:09:12;;;;;;;18.27;16.67;;;25.30;70.30;;;;;;5018882;28;20499;-67
2022/06/20 12:11:54;;;;;;;16.93;15.87;;;24.50;71.80;;;;;;5020347;28;20554;-67
2022/06/20 12:14:31;;;;;;;16.60;15.50;;;24.50;71.60;;;;;;5021549;28;20471;-67
2022/06/20 12:17:10;;;;;;;16.83;15.90;;;25.20;71.90;;;;;;5020735;28;20456;-68
2022/06/20 12:25:35;;;;;;;16.70;15.80;;;27.40;66.00;;;;;;5021409;28;20785;-69
2022/06/20 12:28:03;;;;;;;16.73;15.57;;;27.80;62.50;;;;;;5020571;28;20827;-69
2022/06/20 12:30:31;;;;;;;16.83;15.90;;;27.80;61.00;;;;;;5021087;28;20843;-69
2022/06/20 12:33:00;;;;;;;16.73;15.83;;;27.40;60.40;;;;;;5020007;28;20678;-70
2022/06/20 12:35:33;;;;;;;17.47;16.20;;;27.50;62.40;;;;;;5018553;28;20465;-68
2022/06/20 12:38:06;;;;;;;16.20;14.90;;;27.00;63.00;;;;;;5020146;28;20459;-68
2022/06/20 12:40:39;;;;;;;17.00;15.70;;;26.90;64.10;;;;;;5021238;28;20491;-68
2022/06/20 12:43:13;;;;;;;16.60;15.40;;;27.40;60.60;;;;;;5022011;28;20462;-68
2022/06/20 12:46:02;;;;;;;16.43;15.43;;;28.20;58.60;;;;;;5019974;28;20982;-69
2022/06/20 12:48:48;;;;;;;17.90;16.60;;;28.20;57.70;;;;;;5021068;28;20468;-69
2022/06/20 12:51:23;;;;;;;17.93;16.63;;;27.90;59.20;;;;;;5022360;28;20455;-67
2022/06/20 12:54:05;;;;;;;17.17;15.97;;;26.00;57.70;;;;;;5023598;28;20485;-67
2022/06/20 12:56:45;;;;;;;17.10;16.23;;;25.90;60.30;;;;;;5024304;28;21017;-67
2022/06/20 12:59:35;;;;;;;16.70;15.80;;;26.50;59.30;;;;;;5023906;28;20494;-67
2022/06/20 13:02:11;;;;;;;17.43;16.37;;;26.50;58.90;;;;;;5025355;28;21307;-67
2022/06/20 13:05:07;;;;;;;17.63;15.97;;;25.80;59.20;;;;;;5024816;28;20462;-69
2022/06/20 13:07:55;;;;;;;17.20;16.10;;;25.20;59.60;;;;;;5024097;28;20474;-69
2022/06/20 13:10:35;;;;;;;16.30;15.50;;;25.40;60.70;;;;;;5024178;28;21160;-66
2022/06/20 13:13:22;;;;;;;15.47;14.60;;;25.30;59.90;;;;;;5024530;28;20586;-67
2022/06/20 13:15:56;;;;;;;16.87;15.97;;;25.30;64.30;;;;;;5024903;28;20472;-66
2022/06/20 13:19:09;;;;;;;15.97;15.07;;;25.40;61.50;;;;;;5022754;28;20938;-66
2022/06/20 13:21:42;;;;;;;15.70;14.90;;;24.50;64.40;;;;;;5022828;28;20479;-69